createdAt,value
2023-05-19T00:01:37.665Z,98782.31
2023-05-19T00:04:07.393Z,98782.13
2023-05-19T00:06:38.584Z,98771.06
2023-05-19T00:09:13.601Z,98773.66
2023-05-19T00:11:47.576Z,98772.53
2023-05-19T00:14:16.228Z,98765.25
2023-05-19T00:16:52.354Z,98767.94
2023-05-19T00:19:21.216Z,98773.19
2023-05-19T00:21:54.664Z,98771.84
2023-05-19T00:24:22.870Z,98763.81
2023-05-19T00:26:52.582Z,98770.22
2023-05-19T00:29:24.544Z,98763.41
2023-05-19T00:31:54.413Z,98759.53
2023-05-19T00:34:24.980Z,98756.34
2023-05-19T00:36:53.546Z,98762.81
2023-05-19T00:39:30.136Z,98765.06
2023-05-19T00:42:00.981Z,98753.47
2023-05-19T00:44:29.035Z,98757.38
2023-05-19T00:46:59.869Z,98760.13
2023-05-19T00:49:29.014Z,98753.47
2023-05-19T00:51:58.395Z,98753.00
2023-05-19T00:54:32.604Z,98750.03
2023-05-19T00:57:01.962Z,98745.28
2023-05-19T00:59:35.949Z,98741.16
2023-05-19T01:02:05.999Z,98739.06
2023-05-19T01:04:35.168Z,98737.28
2023-05-19T01:07:09.536Z,98730.88
2023-05-19T01:09:42.027Z,98737.00
2023-05-19T01:12:12.190Z,98733.16
2023-05-19T01:14:42.368Z,98724.75
2023-05-19T01:17:23.110Z,98730.66
2023-05-19T01:20:03.246Z,98727.97
2023-05-19T01:22:45.278Z,98718.25
2023-05-19T01:25:46.440Z,98714.59
2023-05-19T01:29:07.387Z,98714.13
2023-05-19T01:31:40.048Z,98719.59
2023-05-19T01:34:09.576Z,98716.59
2023-05-19T01:36:42.278Z,98717.06
2023-05-19T01:39:10.872Z,98720.84
2023-05-19T01:41:43.574Z,98719.06
2023-05-19T01:44:12.056Z,98709.75
2023-05-19T01:46:43.007Z,98712.81
2023-05-19T01:49:11.379Z,98715.19
2023-05-19T01:51:39.617Z,98710.00
2023-05-19T01:54:10.878Z,98714.53
2023-05-19T01:56:49.858Z,98714.66
2023-05-19T01:59:45.398Z,98717.06
2023-05-19T02:02:26.570Z,98713.84
2023-05-19T02:05:08.457Z,98723.06
2023-05-19T02:07:43.712Z,98728.38
2023-05-19T02:10:17.808Z,98728.25
2023-05-19T02:12:49.681Z,98734.22
2023-05-19T02:15:19.947Z,98734.41
2023-05-19T02:17:57.003Z,98732.44
2023-05-19T02:20:25.073Z,98728.09
2023-05-19T02:22:56.042Z,98730.50
2023-05-19T02:25:25.093Z,98725.84
2023-05-19T02:27:57.803Z,98724.06
2023-05-19T02:30:29.375Z,98720.13
2023-05-19T02:32:58.955Z,98713.84
2023-05-19T02:35:27.946Z,98714.78
2023-05-19T02:37:56.011Z,98710.66
2023-05-19T02:40:24.256Z,98704.53
2023-05-19T02:42:52.103Z,98702.94
2023-05-19T02:45:20.167Z,98700.47
2023-05-19T02:47:48.488Z,98701.59
2023-05-19T02:50:41.488Z,98701.09
2023-05-19T02:53:11.657Z,98693.88
2023-05-19T02:55:41.295Z,98688.38
2023-05-19T02:58:09.200Z,98687.28
2023-05-19T03:00:49.422Z,98691.09
2023-05-19T03:03:18.678Z,98691.22
2023-05-19T03:05:48.307Z,98680.19
2023-05-19T03:08:17.159Z,98692.69
2023-05-19T03:10:46.991Z,98685.88
2023-05-19T03:13:17.044Z,98687.47
2023-05-19T03:15:47.640Z,98693.59
2023-05-19T03:18:16.656Z,98690.16
2023-05-19T03:20:47.575Z,98695.34
2023-05-19T03:23:17.535Z,98690.97
2023-05-19T03:25:46.745Z,98697.78
2023-05-19T03:28:14.924Z,98704.38
2023-05-19T03:30:48.211Z,98695.72
2023-05-19T03:33:16.384Z,98706.00
2023-05-19T03:35:48.200Z,98705.19
2023-05-19T03:38:22.919Z,98709.19
2023-05-19T03:40:52.062Z,98703.91
2023-05-19T03:43:20.135Z,98704.00
2023-05-19T03:45:47.937Z,98706.22
2023-05-19T03:48:21.044Z,98702.41
2023-05-19T03:50:59.562Z,98708.72
2023-05-19T03:53:36.233Z,98713.50
2023-05-19T03:56:07.976Z,98715.13
2023-05-19T03:58:46.482Z,98717.19
2023-05-19T04:01:20.710Z,98720.38
2023-05-19T04:03:49.256Z,98726.09
2023-05-19T04:06:17.535Z,98721.28
2023-05-19T04:08:49.742Z,98719.97
2023-05-19T04:11:21.724Z,98720.88
2023-05-19T04:13:52.033Z,98714.75
2023-05-19T04:16:22.794Z,98720.22
2023-05-19T04:18:50.895Z,98717.03
2023-05-19T04:21:22.402Z,98714.28
2023-05-19T04:23:51.892Z,98718.63
2023-05-19T04:26:22.647Z,98719.75
2023-05-19T04:29:03.308Z,98712.50
2023-05-19T04:31:34.435Z,98719.75
2023-05-19T04:34:03.378Z,98723.28
2023-05-19T04:36:32.221Z,98723.28
2023-05-19T04:39:05.813Z,98716.81
2023-05-19T04:41:35.216Z,98728.88
2023-05-19T04:44:06.512Z,98721.72
2023-05-19T04:46:37.638Z,98717.78
2023-05-19T04:49:05.887Z,98716.06
2023-05-19T04:51:36.646Z,98724.28
2023-05-19T04:54:10.295Z,98720.75
2023-05-19T04:56:38.780Z,98724.88
2023-05-19T04:59:07.021Z,98720.56
2023-05-19T05:01:41.482Z,98727.53
2023-05-19T05:04:09.969Z,98717.75
2023-05-19T05:06:41.190Z,98719.47
2023-05-19T05:09:11.673Z,98715.34
2023-05-19T05:11:41.279Z,98718.19
2023-05-19T05:14:10.276Z,98721.94
2023-05-19T05:16:39.681Z,98719.75
2023-05-19T05:19:11.982Z,98711.66
2023-05-19T05:21:41.814Z,98716.09
2023-05-19T05:24:14.052Z,98714.72
2023-05-19T05:26:43.180Z,98708.47
2023-05-19T05:29:11.619Z,98713.72
2023-05-19T05:31:41.220Z,98705.28
2023-05-19T05:34:09.393Z,98711.69
2023-05-19T05:36:37.697Z,98705.06
2023-05-19T05:39:06.158Z,98700.53
2023-05-19T05:41:36.334Z,98708.97
2023-05-19T05:44:05.271Z,98708.06
2023-05-19T05:46:34.582Z,98710.56
2023-05-19T05:49:04.295Z,98708.97
2023-05-19T05:51:33.256Z,98707.63
2023-05-19T05:54:03.320Z,98706.22
2023-05-19T05:56:34.770Z,98702.31
2023-05-19T05:59:04.467Z,98699.19
2023-05-19T06:01:34.834Z,98707.59
2023-05-19T06:04:11.001Z,98713.09
2023-05-19T06:06:39.322Z,98716.94
2023-05-19T06:09:08.030Z,98714.06
2023-05-19T06:11:36.946Z,98704.13
2023-05-19T06:14:07.547Z,98717.72
2023-05-19T06:16:35.405Z,98711.59
2023-05-19T06:19:03.308Z,98719.50
2023-05-19T06:21:33.142Z,98707.03
2023-05-19T06:24:02.403Z,98703.41
2023-05-19T06:26:33.083Z,98699.84
2023-05-19T06:29:02.913Z,98697.75
2023-05-19T06:31:34.438Z,98698.81
2023-05-19T06:34:05.908Z,98695.75
2023-05-19T06:36:35.452Z,98694.56
2023-05-19T06:39:04.800Z,98707.34
2023-05-19T06:41:33.048Z,98703.72
2023-05-19T06:44:00.876Z,98703.75
2023-05-19T06:46:29.304Z,98709.16
2023-05-19T06:48:59.179Z,98719.38
2023-05-19T06:51:27.267Z,98711.88
2023-05-19T06:53:55.676Z,98705.31
2023-05-19T06:56:23.949Z,98703.16
2023-05-19T06:58:54.002Z,98705.16
2023-05-19T07:01:21.857Z,98709.09
2023-05-19T07:03:50.844Z,98703.03
2023-05-19T07:06:20.100Z,98700.34
2023-05-19T07:08:48.348Z,98698.75
2023-05-19T07:11:16.650Z,98692.72
2023-05-19T07:13:44.957Z,98695.66
2023-05-19T07:16:12.853Z,98689.38
2023-05-19T07:18:40.977Z,98684.72
2023-05-19T07:21:08.893Z,98679.44
2023-05-19T07:23:37.951Z,98680.56
2023-05-19T07:26:05.885Z,98676.16
2023-05-19T07:28:34.346Z,98678.00
2023-05-19T07:31:02.461Z,98675.69
2023-05-19T07:33:30.479Z,98671.19
2023-05-19T07:35:58.476Z,98666.81
2023-05-19T07:38:26.329Z,98671.13
2023-05-19T07:40:56.809Z,98665.81
2023-05-19T07:43:25.806Z,98675.78
2023-05-19T07:45:56.326Z,98671.69
2023-05-19T07:48:25.736Z,98661.72
2023-05-19T07:50:54.151Z,98656.88
2023-05-19T07:53:22.772Z,98663.84
2023-05-19T07:55:50.900Z,98663.19
2023-05-19T07:58:20.726Z,98660.84
2023-05-19T08:00:48.505Z,98663.13
2023-05-19T08:03:18.367Z,98662.16
2023-05-19T08:05:46.314Z,98657.69
2023-05-19T08:08:17.006Z,98651.31
2023-05-19T08:10:44.980Z,98652.53
2023-05-19T08:13:12.813Z,98656.84
2023-05-19T08:15:42.714Z,98655.22
2023-05-19T08:18:10.658Z,98659.63
2023-05-19T08:20:38.766Z,98661.56
2023-05-19T08:23:06.590Z,98656.13
2023-05-19T08:25:34.333Z,98659.84
2023-05-19T08:28:02.481Z,98653.72
2023-05-19T08:30:30.416Z,98652.56
2023-05-19T08:33:00.087Z,98651.41
2023-05-19T08:35:28.056Z,98654.88
2023-05-19T08:37:55.871Z,98643.28
2023-05-19T08:40:24.543Z,98641.00
2023-05-19T08:42:52.322Z,98650.31
2023-05-19T08:45:20.548Z,98642.72
2023-05-19T08:47:48.422Z,98631.47
2023-05-19T08:50:22.961Z,98641.47
2023-05-19T08:52:53.770Z,98632.28
2023-05-19T08:55:34.030Z,98639.25
2023-05-19T08:58:02.499Z,98624.22
2023-05-19T09:00:32.025Z,98637.66
2023-05-19T09:05:35.922Z,98627.94
2023-05-19T09:08:05.639Z,98627.31
2023-05-19T09:10:33.506Z,98632.88
2023-05-19T09:13:01.506Z,98625.34
2023-05-19T09:15:32.707Z,98640.03
2023-05-19T09:18:11.578Z,98625.72
2023-05-19T09:20:41.855Z,98634.88
2023-05-19T09:23:14.838Z,98643.94
2023-05-19T09:25:49.425Z,98631.75
2023-05-19T09:28:24.745Z,98630.91
2023-05-19T09:31:01.493Z,98626.25
2023-05-19T09:33:29.634Z,98637.38
2023-05-19T09:35:59.034Z,98633.47
2023-05-19T09:38:27.242Z,98621.91
2023-05-19T09:40:57.076Z,98628.63
2023-05-19T09:43:24.886Z,98628.69
2023-05-19T09:45:56.805Z,98626.31
2023-05-19T09:48:27.711Z,98616.81
2023-05-19T09:50:56.708Z,98619.47
2023-05-19T09:53:26.432Z,98614.56
2023-05-19T09:55:57.849Z,98617.66
2023-05-19T09:58:26.286Z,98615.13
2023-05-19T10:00:55.782Z,98618.88
2023-05-19T10:03:24.523Z,98600.22
2023-05-19T10:05:54.314Z,98598.69
2023-05-19T10:08:24.500Z,98595.25
2023-05-19T10:10:53.873Z,98596.75
2023-05-19T10:13:23.016Z,98589.94
2023-05-19T10:18:24.735Z,98585.03
2023-05-19T10:20:53.736Z,98581.34
2023-05-19T10:23:22.484Z,98579.66
2023-05-19T10:25:53.618Z,98575.25
2023-05-19T10:28:28.341Z,98574.19
2023-05-19T10:31:00.944Z,98570.25
2023-05-19T10:33:43.085Z,98556.66
2023-05-19T10:36:33.810Z,98551.06
2023-05-19T10:39:06.945Z,98555.00
2023-05-19T10:41:45.000Z,98559.50
2023-05-19T10:44:22.772Z,98549.97
2023-05-19T10:46:52.505Z,98555.16
2023-05-19T10:49:22.597Z,98552.97
2023-05-19T10:51:51.090Z,98547.88
2023-05-19T10:54:19.571Z,98543.47
2023-05-19T10:56:50.626Z,98547.47
2023-05-19T10:59:37.125Z,98539.56
2023-05-19T11:02:05.789Z,98549.44
2023-05-19T11:04:49.588Z,98545.31
2023-05-19T11:07:21.021Z,98542.56
2023-05-19T11:09:52.599Z,98537.13
2023-05-19T11:12:25.566Z,98540.72
2023-05-19T11:14:55.418Z,98536.75
2023-05-19T11:17:27.335Z,98539.56
2023-05-19T11:19:59.164Z,98538.00
2023-05-19T11:22:28.187Z,98530.75
2023-05-19T11:24:56.449Z,98530.06
2023-05-19T11:27:28.167Z,98526.13
2023-05-19T11:29:57.462Z,98528.13
2023-05-19T11:32:29.297Z,98537.59
2023-05-19T11:34:57.923Z,98523.75
2023-05-19T11:37:25.983Z,98517.44
2023-05-19T11:39:54.283Z,98518.13
2023-05-19T11:42:22.226Z,98509.38
2023-05-19T11:44:51.490Z,98507.19
2023-05-19T11:47:19.509Z,98503.59
2023-05-19T11:49:49.534Z,98503.03
2023-05-19T11:52:17.547Z,98498.75
2023-05-19T11:54:49.896Z,98499.50
2023-05-19T11:57:18.450Z,98494.88
2023-05-19T11:59:49.866Z,98487.25
2023-05-19T12:02:20.662Z,98488.53
2023-05-19T12:04:49.422Z,98475.47
2023-05-19T12:07:18.891Z,98480.19
2023-05-19T12:09:47.543Z,98478.47
2023-05-19T12:12:17.251Z,98475.22
2023-05-19T12:14:45.464Z,98471.72
2023-05-19T12:17:15.097Z,98486.47
2023-05-19T12:19:46.131Z,98473.00
2023-05-19T12:22:15.857Z,98474.44
2023-05-19T12:24:44.970Z,98468.91
2023-05-19T12:27:14.065Z,98472.06
2023-05-19T12:29:41.990Z,98472.03
2023-05-19T12:32:10.585Z,98471.44
2023-05-19T12:34:39.152Z,98476.16
2023-05-19T12:37:08.393Z,98465.16
2023-05-19T12:39:37.278Z,98461.44
2023-05-19T12:42:08.848Z,98461.75
2023-05-19T12:44:38.749Z,98458.47
2023-05-19T12:47:08.194Z,98462.69
2023-05-19T12:49:35.891Z,98448.28
2023-05-19T12:52:07.099Z,98442.91
2023-05-19T12:54:40.476Z,98448.31
2023-05-19T12:57:08.519Z,98442.59
2023-05-19T12:59:38.857Z,98447.81
2023-05-19T13:02:07.509Z,98450.97
2023-05-19T13:04:36.185Z,98451.72
2023-05-19T13:07:03.995Z,98446.91
2023-05-19T13:09:35.025Z,98454.91
2023-05-19T13:12:04.840Z,98442.69
2023-05-19T13:14:32.716Z,98454.53
2023-05-19T13:17:00.668Z,98445.38
2023-05-19T13:19:28.658Z,98438.41
2023-05-19T13:21:56.626Z,98432.00
2023-05-19T13:24:24.329Z,98417.16
2023-05-19T13:26:53.870Z,98423.34
2023-05-19T13:29:23.080Z,98419.97
2023-05-19T13:31:50.996Z,98425.50
2023-05-19T13:34:19.877Z,98412.09
2023-05-19T13:36:48.891Z,98425.56
2023-05-19T13:39:16.847Z,98422.78
2023-05-19T13:41:44.564Z,98415.19
2023-05-19T13:44:12.407Z,98414.97
2023-05-19T13:46:45.597Z,98417.09
2023-05-19T13:49:14.335Z,98420.81
2023-05-19T13:51:44.093Z,98423.19
2023-05-19T13:54:11.949Z,98416.00
2023-05-19T13:56:40.722Z,98427.19
2023-05-19T13:59:08.532Z,98414.56
2023-05-19T14:01:37.103Z,98416.88
2023-05-19T14:04:07.210Z,98412.91
2023-05-19T14:06:35.122Z,98417.28
2023-05-19T14:09:02.897Z,98415.34
2023-05-19T14:11:30.643Z,98408.94
2023-05-19T14:13:58.677Z,98393.44
2023-05-19T14:16:28.727Z,98397.41
2023-05-19T14:18:56.555Z,98399.84
2023-05-19T14:21:25.987Z,98397.09
2023-05-19T14:23:53.845Z,98397.13
2023-05-19T14:26:22.052Z,98400.25
2023-05-19T14:28:49.841Z,98401.81
2023-05-19T14:31:17.669Z,98393.91
2023-05-19T14:33:45.531Z,98394.75
2023-05-19T14:36:13.333Z,98386.72
2023-05-19T14:38:42.511Z,98375.69
2023-05-19T14:41:10.514Z,98379.34
2023-05-19T14:43:38.356Z,98374.72
2023-05-19T14:46:06.357Z,98385.19
2023-05-19T14:48:34.071Z,98389.59
2023-05-19T14:51:01.804Z,98377.66
2023-05-19T14:53:29.677Z,98385.75
2023-05-19T14:55:58.912Z,98383.06
2023-05-19T14:58:29.199Z,98375.63
2023-05-19T15:00:59.084Z,98377.28
2023-05-19T15:03:27.313Z,98372.47
2023-05-19T15:05:55.124Z,98362.97
2023-05-19T15:08:23.432Z,98367.63
2023-05-19T15:10:51.576Z,98366.50
2023-05-19T15:13:21.560Z,98368.63
2023-05-19T15:15:49.476Z,98369.81
2023-05-19T15:18:18.649Z,98377.34
2023-05-19T15:20:46.769Z,98377.31
2023-05-19T15:23:14.654Z,98370.22
2023-05-19T15:25:42.767Z,98385.69
2023-05-19T15:28:10.610Z,98369.47
2023-05-19T15:30:40.103Z,98377.41
2023-05-19T15:33:08.001Z,98377.34
2023-05-19T15:35:35.791Z,98372.22
2023-05-19T15:38:06.272Z,98382.53
2023-05-19T15:40:34.602Z,98386.94
2023-05-19T15:43:02.988Z,98387.75
2023-05-19T15:45:30.822Z,98383.78
2023-05-19T15:47:59.958Z,98385.34
2023-05-19T15:50:27.817Z,98386.94
2023-05-19T15:52:55.602Z,98383.34
2023-05-19T15:55:23.365Z,98391.72
2023-05-19T15:57:51.373Z,98386.19
2023-05-19T16:00:19.932Z,98375.94
2023-05-19T16:02:51.734Z,98387.03
2023-05-19T16:05:22.344Z,98390.13
2023-05-19T16:07:50.660Z,98381.47
2023-05-19T16:10:18.465Z,98383.03
2023-05-19T16:12:46.250Z,98376.72
2023-05-19T16:15:14.055Z,98383.84
2023-05-19T16:17:43.888Z,98380.66
2023-05-19T16:20:13.327Z,98377.50
2023-05-19T16:22:45.090Z,98372.78
2023-05-19T16:25:15.979Z,98368.41
2023-05-19T16:27:46.460Z,98367.25
2023-05-19T16:30:16.571Z,98361.31
2023-05-19T16:32:47.025Z,98364.06
2023-05-19T16:35:21.300Z,98362.47
2023-05-19T16:37:53.144Z,98373.53
2023-05-19T16:40:22.054Z,98373.94
2023-05-19T16:42:49.809Z,98378.28
2023-05-19T16:45:18.358Z,98377.47
2023-05-19T16:47:47.740Z,98375.13
2023-05-19T16:50:16.130Z,98366.44
2023-05-19T16:52:43.971Z,98368.38
2023-05-19T16:55:17.826Z,98372.72
2023-05-19T16:57:45.573Z,98372.72
2023-05-19T17:00:17.071Z,98367.19
2023-05-19T17:02:45.103Z,98366.03
2023-05-19T17:05:13.391Z,98373.50
2023-05-19T17:07:44.835Z,98371.94
2023-05-19T17:10:14.512Z,98371.50
2023-05-19T17:12:43.867Z,98370.31
2023-05-19T17:15:13.334Z,98373.06
2023-05-19T17:17:46.335Z,98361.63
2023-05-19T17:20:15.226Z,98377.41
2023-05-19T17:22:47.207Z,98366.34
2023-05-19T17:25:19.110Z,98371.00
2023-05-19T17:27:47.212Z,98378.56
2023-05-19T17:30:15.093Z,98375.81
2023-05-19T17:32:45.606Z,98367.03
2023-05-19T17:35:13.782Z,98375.72
2023-05-19T17:37:42.394Z,98383.59
2023-05-19T17:40:11.583Z,98375.72
2023-05-19T17:42:41.440Z,98377.28
2023-05-19T17:45:12.680Z,98380.44
2023-05-19T17:47:40.681Z,98381.22
2023-05-19T17:50:11.007Z,98378.13
2023-05-19T17:52:41.712Z,98374.09
2023-05-19T17:55:19.137Z,98384.38
2023-05-19T17:57:50.905Z,98381.97
2023-05-19T18:00:22.241Z,98385.91
2023-05-19T18:02:51.106Z,98382.34
2023-05-19T18:05:22.455Z,98386.69
2023-05-19T18:07:52.804Z,98378.81
2023-05-19T18:10:21.677Z,98378.03
2023-05-19T18:12:51.438Z,98374.03
2023-05-19T18:15:19.251Z,98383.91
2023-05-19T18:17:47.195Z,98383.50
2023-05-19T18:20:18.290Z,98380.31
2023-05-19T18:22:46.996Z,98374.03
2023-05-19T18:25:15.272Z,98386.22
2023-05-19T18:27:43.992Z,98367.63
2023-05-19T18:30:13.814Z,98368.47
2023-05-19T18:32:42.018Z,98377.91
2023-05-19T18:35:10.808Z,98385.78
2023-05-19T18:37:38.862Z,98379.44
2023-05-19T18:40:07.987Z,98379.41
2023-05-19T18:42:35.945Z,98384.13
2023-05-19T18:45:03.854Z,98394.34
2023-05-19T18:47:33.404Z,98380.81
2023-05-19T18:50:01.765Z,98380.78
2023-05-19T18:52:31.332Z,98390.19
2023-05-19T18:55:01.392Z,98384.19
2023-05-19T18:57:29.464Z,98383.00
2023-05-19T18:59:58.169Z,98393.22
2023-05-19T19:02:26.568Z,98401.03
2023-05-19T19:04:56.112Z,98400.53
2023-05-19T19:07:25.435Z,98402.44
2023-05-19T19:09:53.301Z,98407.22
2023-05-19T19:12:21.313Z,98401.66
2023-05-19T19:14:49.254Z,98420.13
2023-05-19T19:17:17.981Z,98418.44
2023-05-19T19:19:47.236Z,98418.03
2023-05-19T19:22:17.087Z,98416.81
2023-05-19T19:24:44.941Z,98415.16
2023-05-19T19:27:16.223Z,98421.06
2023-05-19T19:29:44.315Z,98424.13
2023-05-19T19:32:13.395Z,98425.72
2023-05-19T19:34:41.880Z,98428.53
2023-05-19T19:37:11.192Z,98421.69
2023-05-19T19:39:40.357Z,98415.31
2023-05-19T19:42:08.161Z,98428.66
2023-05-19T19:44:36.143Z,98425.88
2023-05-19T19:47:06.160Z,98423.81
2023-05-19T19:49:34.604Z,98430.06
2023-05-19T19:52:02.733Z,98427.75
2023-05-19T19:54:30.763Z,98432.81
2023-05-19T19:56:59.881Z,98441.94
2023-05-19T19:59:27.973Z,98432.50
2023-05-19T20:01:56.210Z,98435.25
2023-05-19T20:04:27.145Z,98435.59
2023-05-19T20:06:55.242Z,98430.13
2023-05-19T20:09:26.602Z,98439.19
2023-05-19T20:11:54.930Z,98430.63
2023-05-19T20:14:27.790Z,98429.44
2023-05-19T20:16:56.513Z,98430.19
2023-05-19T20:19:27.586Z,98428.66
2023-05-19T20:21:55.908Z,98424.25
2023-05-19T20:24:24.954Z,98424.81
2023-05-19T20:26:53.298Z,98421.66
2023-05-19T20:29:34.607Z,98425.59
2023-05-19T20:32:04.123Z,98425.16
2023-05-19T20:34:38.569Z,98430.97
2023-05-19T20:37:09.543Z,98429.34
2023-05-19T20:39:37.644Z,98430.84
2023-05-19T20:42:07.995Z,98429.31
2023-05-19T20:44:37.445Z,98424.44
2023-05-19T20:47:08.325Z,98424.34
2023-05-19T20:49:40.885Z,98421.91
2023-05-19T20:52:09.463Z,98421.94
2023-05-19T20:54:39.570Z,98428.97
2023-05-19T20:57:09.374Z,98425.09
2023-05-19T20:59:40.447Z,98428.19
2023-05-19T21:02:19.018Z,98426.84
2023-05-19T21:04:49.370Z,98428.00
2023-05-19T21:07:22.026Z,98426.41
2023-05-19T21:09:52.566Z,98428.75
2023-05-19T21:12:24.042Z,98427.91
2023-05-19T21:14:52.440Z,98427.06
2023-05-19T21:17:21.945Z,98430.09
2023-05-19T21:19:57.707Z,98428.84
2023-05-19T21:22:29.730Z,98422.91
2023-05-19T21:24:58.210Z,98418.56
2023-05-19T21:27:36.524Z,98414.25
2023-05-19T21:30:11.061Z,98412.00
2023-05-19T21:32:44.438Z,98422.06
2023-05-19T21:35:16.072Z,98422.00
2023-05-19T21:37:48.298Z,98419.03
2023-05-19T21:40:24.234Z,98420.19
2023-05-19T21:43:06.109Z,98416.00
2023-05-19T21:48:38.636Z,98414.78
2023-05-19T21:51:23.136Z,98416.88
2023-05-19T21:53:56.846Z,98411.81
2023-05-19T21:56:27.495Z,98406.66
2023-05-19T21:59:01.870Z,98411.13
2023-05-19T22:01:35.203Z,98407.84
2023-05-19T22:04:19.217Z,98409.72
2023-05-19T22:06:48.804Z,98404.25
2023-05-19T22:09:18.855Z,98406.97
2023-05-19T22:11:50.195Z,98403.09
2023-05-19T22:14:18.614Z,98402.78
2023-05-19T22:16:55.713Z,98398.72
2023-05-19T22:19:25.756Z,98393.94
2023-05-19T22:22:13.309Z,98400.41
2023-05-19T22:24:49.905Z,98394.06
2023-05-19T22:27:21.064Z,98393.38
2023-05-19T22:29:54.386Z,98395.78
2023-05-19T22:32:22.891Z,98388.59
2023-05-19T22:34:56.344Z,98384.84
2023-05-19T22:37:24.656Z,98385.28
2023-05-19T22:39:55.205Z,98383.75
2023-05-19T22:42:23.282Z,98385.41
2023-05-19T22:44:57.478Z,98381.50
2023-05-19T22:47:26.728Z,98376.00
2023-05-19T22:50:02.756Z,98381.06
2023-05-19T22:52:37.191Z,98378.97
2023-05-19T22:55:09.920Z,98377.59
2023-05-19T22:57:39.153Z,98379.06
2023-05-19T23:00:14.374Z,98375.94
2023-05-19T23:02:49.242Z,98371.25
2023-05-19T23:05:22.298Z,98381.56
2023-05-19T23:08:11.345Z,98381.38
2023-05-19T23:10:41.176Z,98372.69
2023-05-19T23:13:20.442Z,98376.97
2023-05-19T23:15:53.141Z,98374.97
2023-05-19T23:18:23.109Z,98370.38
2023-05-19T23:20:58.058Z,98360.19
2023-05-19T23:23:29.233Z,98360.81
2023-05-19T23:26:00.744Z,98360.09
2023-05-19T23:28:29.093Z,98349.09
2023-05-19T23:31:03.104Z,98355.50
2023-05-19T23:33:31.301Z,98358.09
2023-05-19T23:36:05.191Z,98347.25
2023-05-19T23:38:44.507Z,98347.38
2023-05-19T23:41:12.801Z,98347.81
2023-05-19T23:43:43.018Z,98356.88
2023-05-19T23:46:14.923Z,98346.63
2023-05-19T23:48:44.427Z,98343.41
2023-05-19T23:51:18.176Z,98346.22
2023-05-19T23:53:49.905Z,98346.75
2023-05-19T23:56:19.195Z,98350.16
2023-05-19T23:58:49.117Z,98339.88
